Time;durP1;ratioP1;P1;durP2;ratioP2;P2;SDS_P1;SDS_P2;PMS_P1;PMS_P2;Temp;Humidity;BMP_temperature;BMP_pressure;BME280_temperature;BME280_humidity;BME280_pressure;Samples;Min_cycle;Max_cycle;Signal;HPM_P1;HPM_P2
2021/03/16 00:01:05;;;;;;;9.88;4.70;;;4.40;99.90;;;;;;5031980;28;20025;-73
2021/03/16 00:03:32;;;;;;;6.30;4.28;;;4.50;99.90;;;;;;5046685;28;20073;-73
2021/03/16 00:05:57;;;;;;;5.97;4.55;;;4.50;99.90;;;;;;5032148;28;20096;-74
2021/03/16 00:08:23;;;;;;;6.57;5.10;;;4.40;99.90;;;;;;5041239;28;20060;-73
2021/03/16 00:10:50;;;;;;;7.75;4.68;;;4.40;99.90;;;;;;5051757;28;20099;-72
2021/03/16 00:13:16;;;;;;;5.68;4.90;;;4.40;99.90;;;;;;5030566;28;20026;-73
2021/03/16 00:15:41;;;;;;;9.65;5.32;;;4.40;99.90;;;;;;5020369;28;20072;-73
2021/03/16 00:18:13;;;;;;;6.63;4.75;;;4.40;99.90;;;;;;5016328;28;20030;-71
2021/03/16 00:20:40;;;;;;;9.82;4.70;;;4.40;99.90;;;;;;5028027;28;20028;-73
2021/03/16 00:23:07;;;;;;;5.60;4.88;;;4.40;99.90;;;;;;5023944;28;20038;-73
2021/03/16 00:25:33;;;;;;;5.00;4.43;;;4.40;99.90;;;;;;5015346;28;20025;-73
2021/03/16 00:27:58;;;;;;;5.60;4.53;;;4.40;99.90;;;;;;5014871;28;20481;-74
2021/03/16 00:30:24;;;;;;;5.57;4.80;;;4.50;99.90;;;;;;5026528;28;20116;-73
2021/03/16 00:32:50;;;;;;;8.07;5.35;;;4.40;99.90;;;;;;5034263;28;20116;-73
2021/03/16 00:35:16;;;;;;;6.18;4.82;;;4.40;99.90;;;;;;5033651;28;20108;-71
2021/03/16 00:37:42;;;;;;;4.88;4.43;;;4.40;99.90;;;;;;5022869;28;20061;-74
2021/03/16 00:40:08;;;;;;;11.63;5.45;;;4.40;99.90;;;;;;5015742;28;20484;-74
2021/03/16 00:42:34;;;;;;;10.15;4.90;;;4.40;99.90;;;;;;5015309;28;20022;-72
2021/03/16 00:44:59;;;;;;;8.02;4.65;;;4.30;99.90;;;;;;5014505;28;20026;-73
2021/03/16 00:47:25;;;;;;;8.57;4.82;;;4.30;99.90;;;;;;5014973;28;20036;-74
2021/03/16 00:49:51;;;;;;;8.77;5.18;;;4.30;99.90;;;;;;5015482;28;20148;-73
2021/03/16 00:52:17;;;;;;;7.13;5.78;;;4.30;99.90;;;;;;5013366;28;20080;-74
2021/03/16 00:54:42;;;;;;;10.73;5.68;;;4.40;99.90;;;;;;5014387;28;20550;-74
2021/03/16 00:57:08;;;;;;;7.68;4.90;;;4.30;99.90;;;;;;5014589;28;20396;-74
2021/03/16 00:59:33;;;;;;;8.30;5.82;;;4.10;99.90;;;;;;5014724;28;20053;-74
2021/03/16 01:01:59;;;;;;;8.38;5.60;;;4.10;99.90;;;;;;5014976;28;20463;-73
2021/03/16 01:04:25;;;;;;;7.47;5.15;;;4.10;99.90;;;;;;5014126;28;20028;-74
2021/03/16 01:06:50;;;;;;;8.30;5.38;;;4.00;99.90;;;;;;5018884;28;20079;-73
2021/03/16 01:09:16;;;;;;;8.50;5.95;;;4.10;99.90;;;;;;5034919;28;20029;-74
2021/03/16 01:11:42;;;;;;;10.90;6.30;;;4.10;99.90;;;;;;5045842;28;20052;-73
2021/03/16 01:14:08;;;;;;;10.63;5.97;;;4.10;99.90;;;;;;5049667;28;20026;-73
2021/03/16 01:16:34;;;;;;;8.38;5.55;;;4.20;99.90;;;;;;5068715;28;20029;-72
2021/03/16 01:18:59;;;;;;;11.32;5.95;;;4.20;99.90;;;;;;5034902;28;20550;-73
2021/03/16 01:21:25;;;;;;;7.70;6.18;;;4.20;99.90;;;;;;5034473;28;20543;-75
2021/03/16 01:23:51;;;;;;;9.35;6.05;;;4.30;99.90;;;;;;5033342;28;20040;-72
2021/03/16 01:26:16;;;;;;;9.00;5.40;;;4.40;99.90;;;;;;5036622;28;20095;-72
2021/03/16 01:28:42;;;;;;;10.32;5.72;;;4.20;99.90;;;;;;5036260;28;20052;-73
2021/03/16 01:31:08;;;;;;;7.80;5.53;;;4.10;99.90;;;;;;5035067;28;20022;-72
2021/03/16 01:33:33;;;;;;;10.20;5.50;;;4.00;99.90;;;;;;5034165;28;20087;-73
2021/03/16 01:35:59;;;;;;;6.70;5.53;;;3.80;99.90;;;;;;5034569;28;20029;-73
2021/03/16 01:38:25;;;;;;;9.68;5.35;;;3.90;99.90;;;;;;5016350;28;20030;-73
2021/03/16 01:40:51;;;;;;;10.77;6.03;;;3.80;99.90;;;;;;5013888;28;20026;-73
2021/03/16 01:43:23;;;;;;;12.65;5.97;;;3.80;99.90;;;;;;5013360;28;20586;-73
2021/03/16 01:45:50;;;;;;;;;;;3.90;99.90;;;;;;5014440;28;20416;-72
2021/03/16 01:48:22;;;;;;;7.72;5.63;;;3.80;99.90;;;;;;5013203;28;19906;-75
2021/03/16 01:50:48;;;;;;;10.07;5.90;;;3.90;99.90;;;;;;5014645;28;20026;-73
2021/03/16 01:53:14;;;;;;;9.57;5.18;;;3.80;99.90;;;;;;5013814;28;20633;-73
2021/03/16 01:55:42;;;;;;;8.32;5.68;;;3.80;99.90;;;;;;5014112;28;20021;-74
2021/03/16 01:58:07;;;;;;;8.55;5.65;;;3.80;99.90;;;;;;5014536;28;20565;-74
2021/03/16 02:00:41;;;;;;;10.13;5.63;;;3.80;99.90;;;;;;5014322;28;20112;-72
2021/03/16 02:03:09;;;;;;;9.60;5.97;;;3.80;99.90;;;;;;5012837;28;20015;-73
2021/03/16 02:05:34;;;;;;;11.45;6.50;;;3.80;99.90;;;;;;5013661;28;20032;-74
2021/03/16 02:08:18;;;;;;;11.43;6.40;;;3.80;99.90;;;;;;5013478;28;20026;-73
2021/03/16 02:11:25;;;;;;;11.73;6.47;;;3.80;99.90;;;;;;5013820;28;20100;-72
2021/03/16 02:14:06;;;;;;;10.50;6.85;;;3.80;99.90;;;;;;4976218;28;20058;-75
2021/03/16 02:16:36;;;;;;;12.00;7.00;;;3.80;99.90;;;;;;5013507;28;20361;-73
2021/03/16 02:19:13;;;;;;;12.90;6.53;;;3.70;99.90;;;;;;5028828;28;20527;-74
2021/03/16 02:21:39;;;;;;;16.23;6.75;;;3.80;99.90;;;;;;5013529;28;20030;-74
2021/03/16 02:24:05;;;;;;;13.70;6.60;;;3.80;99.90;;;;;;5012407;28;20025;-74
2021/03/16 02:26:52;;;;;;;15.70;6.50;;;3.70;99.90;;;;;;5013619;28;20030;-74
2021/03/16 02:29:23;;;;;;;11.93;6.40;;;3.70;99.90;;;;;;5013778;28;20097;-72
2021/03/16 02:32:03;;;;;;;12.23;7.03;;;3.70;99.90;;;;;;5014034;28;20030;-73
2021/03/16 02:34:31;;;;;;;13.57;5.93;;;3.70;99.90;;;;;;5014521;28;20037;-74
2021/03/16 02:36:58;;;;;;;12.07;6.22;;;3.80;99.90;;;;;;5014738;28;20166;-73
2021/03/16 02:39:26;;;;;;;10.40;7.13;;;3.80;99.90;;;;;;5013424;28;20029;-73
2021/03/16 02:41:54;;;;;;;13.55;6.30;;;3.70;99.90;;;;;;5013018;28;20030;-73
2021/03/16 02:44:19;;;;;;;13.65;5.47;;;3.60;99.90;;;;;;5012379;28;20424;-74
2021/03/16 02:46:48;;;;;;;8.57;5.45;;;3.60;99.90;;;;;;5012451;28;20160;-73
2021/03/16 02:49:16;;;;;;;10.45;6.38;;;3.60;99.90;;;;;;5013157;28;20044;-72
2021/03/16 02:51:43;;;;;;;8.82;5.50;;;3.70;99.90;;;;;;5013129;28;20034;-75
2021/03/16 02:54:10;;;;;;;9.65;6.38;;;3.60;99.90;;;;;;5011910;28;20022;-73
2021/03/16 02:56:37;;;;;;;12.10;6.22;;;3.60;99.90;;;;;;5012743;28;20029;-73
2021/03/16 02:59:08;;;;;;;14.52;6.30;;;3.60;99.90;;;;;;5013308;28;20029;-72
2021/03/16 03:01:38;;;;;;;10.60;5.53;;;3.60;99.90;;;;;;5013004;28;20026;-73
2021/03/16 03:04:08;;;;;;;8.45;5.40;;;3.60;99.90;;;;;;5019855;28;20461;-73
2021/03/16 03:06:37;;;;;;;22.00;6.97;;;3.60;99.90;;;;;;5035838;28;20048;-73
2021/03/16 03:09:04;;;;;;;9.25;5.43;;;3.50;99.90;;;;;;5054403;28;20028;-73
2021/03/16 03:11:31;;;;;;;13.40;5.68;;;3.60;99.90;;;;;;5054039;28;20029;-73
2021/03/16 03:14:00;;;;;;;11.15;6.18;;;3.50;99.90;;;;;;5053498;28;20184;-73
2021/03/16 03:16:27;;;;;;;11.68;6.25;;;3.60;99.90;;;;;;5040481;28;20393;-73
2021/03/16 03:18:52;;;;;;;12.13;6.07;;;3.60;99.90;;;;;;5032332;28;20458;-74
2021/03/16 03:21:45;;;;;;;11.88;6.38;;;3.60;99.90;;;;;;5032360;28;20025;-73
2021/03/16 03:24:15;;;;;;;11.57;6.18;;;3.60;99.90;;;;;;5031101;28;20052;-71
2021/03/16 03:26:59;;;;;;;9.73;6.03;;;3.70;99.90;;;;;;5032252;28;20044;-73
2021/03/16 03:29:27;;;;;;;9.32;5.85;;;3.60;99.90;;;;;;5031789;28;20022;-75
2021/03/16 03:31:54;;;;;;;7.30;5.60;;;3.70;99.90;;;;;;5031967;28;20075;-73
2021/03/16 03:34:21;;;;;;;13.70;5.68;;;3.50;99.90;;;;;;5031050;28;20021;-72
2021/03/16 03:36:52;;;;;;;11.23;5.43;;;3.50;99.90;;;;;;5027752;28;20025;-73
2021/03/16 03:39:19;;;;;;;11.77;5.65;;;3.60;99.90;;;;;;5011845;28;20033;-73
2021/03/16 03:41:46;;;;;;;13.27;5.95;;;3.50;99.90;;;;;;5012000;28;20049;-72
2021/03/16 03:44:13;;;;;;;10.70;5.70;;;3.50;99.90;;;;;;5011371;28;20050;-72
2021/03/16 03:46:40;;;;;;;12.38;5.78;;;3.50;99.90;;;;;;5011885;28;20029;-71
2021/03/16 03:49:07;;;;;;;11.77;5.97;;;3.50;99.90;;;;;;5012005;28;20026;-72
2021/03/16 03:51:33;;;;;;;7.97;6.13;;;3.50;99.90;;;;;;5011740;28;20535;-73
2021/03/16 03:54:01;;;;;;;16.08;6.45;;;3.50;99.90;;;;;;5010903;28;20022;-73
2021/03/16 03:56:33;;;;;;;9.27;5.25;;;3.50;99.90;;;;;;5011607;28;20101;-74
2021/03/16 03:59:00;;;;;;;10.95;4.95;;;3.50;99.90;;;;;;5014035;28;20475;-73
2021/03/16 04:01:29;;;;;;;9.55;5.20;;;3.50;99.90;;;;;;5015760;28;20381;-73
2021/03/16 04:03:55;;;;;;;9.30;5.05;;;3.60;99.90;;;;;;5015079;28;20073;-74
2021/03/16 04:06:25;;;;;;;12.80;5.32;;;3.60;99.90;;;;;;5014267;28;20434;-73
2021/03/16 04:08:52;;;;;;;8.38;4.88;;;3.70;99.90;;;;;;5015381;28;20030;-73
2021/03/16 04:11:22;;;;;;;9.02;4.85;;;3.70;99.90;;;;;;5015321;28;20026;-74
2021/03/16 04:13:49;;;;;;;16.35;5.10;;;3.80;99.90;;;;;;5013520;28;20030;-74
2021/03/16 04:16:17;;;;;;;7.95;4.40;;;3.80;99.90;;;;;;5015716;28;20033;-74
2021/03/16 04:18:43;;;;;;;8.25;3.65;;;3.80;99.90;;;;;;5014219;28;20056;-73
2021/03/16 04:21:10;;;;;;;4.95;3.70;;;3.80;99.90;;;;;;5025690;28;20046;-73
2021/03/16 04:23:36;;;;;;;7.38;3.90;;;3.80;99.90;;;;;;5038878;28;20017;-75
2021/03/16 04:26:02;;;;;;;9.25;3.58;;;3.80;99.90;;;;;;5038573;28;20049;-74
2021/03/16 04:28:28;;;;;;;7.53;3.90;;;3.80;99.90;;;;;;5021462;28;20431;-74
2021/03/16 04:30:54;;;;;;;10.43;4.63;;;3.90;99.90;;;;;;5019864;28;20324;-73
2021/03/16 04:33:20;;;;;;;5.68;3.78;;;3.90;99.90;;;;;;5027335;28;20033;-73
2021/03/16 04:35:46;;;;;;;6.63;3.40;;;3.90;99.90;;;;;;5023173;28;20026;-75
2021/03/16 04:38:12;;;;;;;10.43;4.07;;;3.90;99.90;;;;;;5015750;28;20400;-75
2021/03/16 04:40:39;;;;;;;6.22;3.42;;;3.90;99.90;;;;;;5016268;28;20084;-72
2021/03/16 04:43:06;;;;;;;6.00;3.22;;;3.90;99.90;;;;;;5015256;28;20026;-73
2021/03/16 04:45:32;;;;;;;5.55;3.45;;;3.90;99.90;;;;;;5015041;28;20034;-72
2021/03/16 04:47:57;;;;;;;8.65;3.42;;;3.90;99.90;;;;;;5013890;28;20121;-72
2021/03/16 04:50:23;;;;;;;6.97;3.15;;;3.90;99.90;;;;;;5015223;28;20392;-72
2021/03/16 04:52:50;;;;;;;9.13;3.60;;;3.90;99.90;;;;;;5014087;28;20033;-74
2021/03/16 04:55:16;;;;;;;8.57;3.05;;;3.90;99.90;;;;;;5014610;28;20049;-73
2021/03/16 04:57:41;;;;;;;10.20;3.30;;;3.90;99.90;;;;;;5014817;28;20080;-74
2021/03/16 05:00:08;;;;;;;7.90;3.05;;;4.00;99.90;;;;;;5014794;28;20053;-75
2021/03/16 05:02:33;;;;;;;8.85;3.38;;;4.00;99.90;;;;;;5014385;28;20022;-74
2021/03/16 05:04:59;;;;;;;8.07;3.40;;;3.90;99.90;;;;;;5014118;28;20018;-73
2021/03/16 05:07:24;;;;;;;8.48;3.08;;;3.80;99.90;;;;;;5014426;28;20097;-74
2021/03/16 05:09:50;;;;;;;7.60;3.28;;;3.90;99.90;;;;;;5013949;28;20022;-75
2021/03/16 05:12:16;;;;;;;9.10;2.88;;;3.90;99.90;;;;;;5014625;28;20038;-74
2021/03/16 05:14:41;;;;;;;11.13;3.38;;;3.90;99.90;;;;;;5028595;28;20034;-73
2021/03/16 05:17:07;;;;;;;7.13;2.88;;;4.00;99.90;;;;;;5014381;28;20477;-72
2021/03/16 05:19:33;;;;;;;8.68;2.50;;;3.90;99.90;;;;;;5014466;28;20018;-73
2021/03/16 05:21:58;;;;;;;9.63;3.05;;;3.70;99.90;;;;;;5014081;28;20080;-73
2021/03/16 05:24:24;;;;;;;9.38;3.10;;;3.70;99.90;;;;;;5013479;28;20060;-73
2021/03/16 05:26:50;;;;;;;8.95;3.50;;;3.70;99.90;;;;;;5014159;28;20037;-73
2021/03/16 05:29:15;;;;;;;5.75;2.75;;;3.70;99.90;;;;;;5014291;28;20026;-73
2021/03/16 05:31:41;;;;;;;6.80;2.50;;;3.80;99.90;;;;;;5029287;28;20030;-72
2021/03/16 05:34:07;;;;;;;10.32;3.92;;;3.70;99.90;;;;;;5013310;28;20500;-73
2021/03/16 05:36:33;;;;;;;9.95;2.90;;;3.80;99.90;;;;;;5013866;28;20014;-73
2021/03/16 05:38:59;;;;;;;12.82;2.80;;;3.80;99.90;;;;;;5014068;28;20034;-72
2021/03/16 05:41:26;;;;;;;7.45;2.90;;;3.70;99.90;;;;;;5014216;28;20427;-72
2021/03/16 05:43:53;;;;;;;8.43;2.72;;;3.80;99.90;;;;;;5019993;28;20145;-73
2021/03/16 05:46:19;;;;;;;6.85;2.90;;;3.80;99.90;;;;;;5014386;28;20034;-74
2021/03/16 05:48:49;;;;;;;13.07;3.10;;;3.80;99.90;;;;;;5014425;28;20032;-73
2021/03/16 05:51:15;;;;;;;5.95;2.40;;;3.90;99.90;;;;;;5014502;28;20409;-74
2021/03/16 05:53:44;;;;;;;9.07;2.20;;;3.90;99.90;;;;;;5015920;28;20030;-73
2021/03/16 05:56:10;;;;;;;14.55;2.78;;;3.80;99.90;;;;;;5019182;28;20022;-74
2021/03/16 05:58:36;;;;;;;7.82;2.60;;;3.90;99.90;;;;;;5020779;28;20122;-74
2021/03/16 06:01:01;;;;;;;7.97;2.53;;;3.90;99.90;;;;;;5015105;28;20025;-74
2021/03/16 06:03:27;;;;;;;8.65;3.75;;;3.90;99.90;;;;;;4999572;28;20555;-72
2021/03/16 06:05:53;;;;;;;7.25;2.45;;;3.90;99.90;;;;;;4995802;28;20567;-73
2021/03/16 06:08:19;;;;;;;8.93;2.53;;;4.00;99.90;;;;;;4995926;28;20037;-73
2021/03/16 06:10:44;;;;;;;5.68;2.25;;;4.00;99.90;;;;;;4994252;28;20037;-73
2021/03/16 06:13:12;;;;;;;5.00;2.28;;;4.00;99.90;;;;;;5010608;28;20030;-73
2021/03/16 06:15:38;;;;;;;8.77;2.40;;;4.00;99.90;;;;;;5013806;28;20533;-74
2021/03/16 06:18:04;;;;;;;8.48;3.17;;;4.00;99.90;;;;;;5012623;28;20042;-72
2021/03/16 06:20:35;;;;;;;6.75;3.42;;;4.70;99.90;;;;;;5013439;28;20132;-70
2021/03/16 06:23:08;;;;;;;7.82;2.45;;;5.60;99.90;;;;;;5014178;28;20578;-70
2021/03/16 06:25:39;;;;;;;5.28;2.45;;;5.60;99.90;;;;;;5013347;28;20029;-70
2021/03/16 06:28:10;;;;;;;5.93;2.10;;;5.70;99.90;;;;;;5013877;28;20030;-70
2021/03/16 06:30:37;;;;;;;5.70;2.05;;;5.60;99.90;;;;;;5013917;28;20053;-71
2021/03/16 06:33:03;;;;;;;7.32;2.30;;;5.40;99.90;;;;;;5012757;28;20566;-74
2021/03/16 06:35:29;;;;;;;4.85;2.38;;;5.50;99.90;;;;;;5012698;28;20033;-74
2021/03/16 06:38:04;;;;;;;6.68;2.17;;;4.90;99.90;;;;;;5013450;28;20026;-75
2021/03/16 06:40:31;;;;;;;5.93;2.10;;;4.60;99.90;;;;;;5019249;28;20029;-74
2021/03/16 06:43:03;;;;;;;6.00;1.98;;;4.50;99.90;;;;;;5016282;28;20025;-73
2021/03/16 06:45:35;;;;;;;9.00;3.08;;;4.30;99.90;;;;;;5013627;28;20067;-72
2021/03/16 06:48:19;;;;;;;10.50;2.73;;;4.30;99.90;;;;;;5013800;28;20040;-73
2021/03/16 06:50:45;;;;;;;4.35;2.20;;;4.20;99.90;;;;;;5013311;28;20117;-74
2021/03/16 06:53:26;;;;;;;6.85;2.92;;;4.30;99.90;;;;;;5012697;28;20026;-73
2021/03/16 06:55:55;;;;;;;5.57;3.00;;;4.20;99.90;;;;;;5018136;28;20026;-76
2021/03/16 06:58:26;;;;;;;5.32;2.50;;;4.10;99.90;;;;;;5022252;28;20033;-75
2021/03/16 07:01:06;;;;;;;7.50;2.60;;;4.40;99.90;;;;;;5017136;28;20083;-77
2021/03/16 07:03:32;;;;;;;7.03;2.65;;;4.30;99.90;;;;;;5013516;28;20033;-74
2021/03/16 07:06:10;;;;;;;7.13;3.38;;;4.40;99.90;;;;;;5014161;28;20030;-73
2021/03/16 07:08:36;;;;;;;5.70;2.67;;;4.50;99.90;;;;;;5014511;28;20026;-74
2021/03/16 07:14:13;;;;;;;7.85;3.15;;;4.60;99.90;;;;;;5134192;23;20448;-74
2021/03/16 07:16:53;;;;;;;9.52;3.83;;;4.60;99.90;;;;;;5023047;28;20081;-72
2021/03/16 07:19:31;;;;;;;6.47;2.63;;;4.70;99.90;;;;;;5007692;28;20106;-72
2021/03/16 07:22:03;;;;;;;8.90;2.95;;;4.80;99.90;;;;;;5029890;28;20131;-73
2021/03/16 07:24:47;;;;;;;9.02;3.35;;;4.80;99.90;;;;;;5071086;27;20867;-73
2021/03/16 07:27:13;;;;;;;5.90;3.42;;;4.90;99.90;;;;;;5065521;28;20075;-73
2021/03/16 07:29:40;;;;;;;11.63;3.72;;;5.00;99.90;;;;;;5051478;28;20025;-71
2021/03/16 07:32:07;;;;;;;8.15;3.08;;;5.10;99.90;;;;;;5052006;28;20021;-69
2021/03/16 07:34:32;;;;;;;7.80;2.83;;;5.20;99.90;;;;;;5060928;28;20488;-70
2021/03/16 07:37:02;;;;;;;11.07;5.22;;;5.30;99.90;;;;;;5052488;28;20041;-69
2021/03/16 07:39:28;;;;;;;11.93;5.55;;;5.20;99.90;;;;;;5051541;28;20435;-70
2021/03/16 07:41:54;;;;;;;8.07;3.20;;;5.10;99.90;;;;;;5051374;28;20026;-70
2021/03/16 07:44:20;;;;;;;14.98;3.83;;;5.10;99.90;;;;;;5050817;28;20388;-70
2021/03/16 07:47:02;;;;;;;8.32;3.45;;;5.00;99.90;;;;;;5064933;28;20020;-70
2021/03/16 07:49:28;;;;;;;10.98;3.88;;;5.00;99.90;;;;;;5063789;28;20027;-70
2021/03/16 07:51:53;;;;;;;10.00;3.58;;;5.00;99.90;;;;;;5058090;28;20391;-69
2021/03/16 07:54:22;;;;;;;12.05;3.80;;;5.00;99.90;;;;;;5076078;28;20094;-69
2021/03/16 07:56:57;;;;;;;8.80;3.78;;;5.10;99.90;;;;;;5077109;28;20025;-70
2021/03/16 07:59:30;;;;;;;11.48;4.90;;;5.10;99.90;;;;;;5074658;28;20104;-68
2021/03/16 08:01:56;;;;;;;7.75;3.33;;;5.80;99.90;;;;;;5077789;28;20025;-69
2021/03/16 08:04:35;;;;;;;10.73;3.63;;;5.70;99.90;;;;;;5078729;28;20025;-70
2021/03/16 08:07:04;;;;;;;15.13;3.67;;;5.60;99.90;;;;;;5075814;28;20103;-70
2021/03/16 08:09:30;;;;;;;10.82;3.17;;;5.80;99.90;;;;;;5070321;28;20067;-69
2021/03/16 08:11:55;;;;;;;19.55;8.00;;;5.80;99.90;;;;;;5069179;28;20025;-69
2021/03/16 08:14:27;;;;;;;8.18;2.92;;;5.90;99.90;;;;;;5067792;28;20024;-69
2021/03/16 08:16:53;;;;;;;7.93;3.53;;;6.20;99.90;;;;;;5068892;28;20382;-70
2021/03/16 08:19:39;;;;;;;15.80;3.70;;;6.20;99.90;;;;;;5068746;28;20035;-68
2021/03/16 08:22:05;;;;;;;12.77;5.82;;;6.30;99.90;;;;;;5069067;28;20037;-71
2021/03/16 08:24:39;;;;;;;20.38;9.70;;;6.60;99.90;;;;;;5068945;28;20048;-69
2021/03/16 08:27:12;;;;;;;15.65;5.85;;;6.70;99.90;;;;;;5068205;28;20021;-70
2021/03/16 08:29:46;;;;;;;16.85;6.22;;;7.00;99.90;;;;;;5068801;28;20021;-69
2021/03/16 08:32:16;;;;;;;9.63;3.30;;;7.30;99.90;;;;;;5069146;28;20052;-71
2021/03/16 08:34:43;;;;;;;12.48;3.65;;;7.50;99.90;;;;;;5063829;28;20021;-70
2021/03/16 08:37:25;;;;;;;11.23;2.80;;;7.50;99.90;;;;;;5055516;28;20029;-70
2021/03/16 08:39:52;;;;;;;10.20;2.40;;;7.60;99.90;;;;;;5054874;28;20042;-70
2021/03/16 08:42:20;;;;;;;11.43;2.33;;;8.60;99.90;;;;;;5067179;28;20040;-70
2021/03/16 08:44:46;;;;;;;7.20;2.40;;;9.20;99.90;;;;;;5056327;28;20035;-70
2021/03/16 08:47:20;;;;;;;11.20;2.58;;;9.20;99.90;;;;;;5066980;28;20025;-70
2021/03/16 08:49:48;;;;;;;9.15;2.60;;;9.40;99.90;;;;;;5074552;28;20044;-72
2021/03/16 08:52:20;;;;;;;9.57;2.83;;;9.90;99.90;;;;;;5061968;28;20109;-71
2021/03/16 08:54:47;;;;;;;8.48;2.70;;;9.60;99.90;;;;;;5058903;28;20021;-70
2021/03/16 08:57:23;;;;;;;9.15;2.67;;;9.70;99.90;;;;;;5060993;28;20036;-72
2021/03/16 08:59:54;;;;;;;8.82;2.42;;;9.50;99.90;;;;;;5058082;28;20093;-71
2021/03/16 09:02:30;;;;;;;8.73;2.53;;;9.20;99.90;;;;;;5056880;28;20082;-71
2021/03/16 09:04:57;;;;;;;9.63;3.30;;;9.10;99.90;;;;;;5057650;28;20021;-72
2021/03/16 09:07:28;;;;;;;12.18;3.33;;;8.80;99.90;;;;;;5056968;28;20467;-71
2021/03/16 09:10:09;;;;;;;7.18;3.05;;;8.40;99.90;;;;;;5056065;28;20052;-71
2021/03/16 09:12:37;;;;;;;10.57;5.13;;;8.10;99.90;;;;;;5055129;28;20024;-71
2021/03/16 09:15:16;;;;;;;12.57;4.30;;;7.70;99.90;;;;;;5046499;28;20026;-71
2021/03/16 09:17:44;;;;;;;7.05;2.50;;;7.60;99.90;;;;;;5035120;28;20061;-70
2021/03/16 09:20:21;;;;;;;26.45;9.32;;;7.60;99.90;;;;;;5035145;28;20187;-70
2021/03/16 09:22:59;;;;;;;7.07;2.55;;;7.60;99.90;;;;;;5053865;28;20407;-69
2021/03/16 09:25:33;;;;;;;15.15;4.82;;;7.70;99.90;;;;;;5053129;28;20033;-70
2021/03/16 09:28:01;;;;;;;15.93;6.60;;;7.60;99.90;;;;;;5054621;28;20021;-70
2021/03/16 09:30:31;;;;;;;9.02;3.00;;;7.50;99.90;;;;;;5054377;28;20025;-71
2021/03/16 09:32:57;;;;;;;8.13;2.67;;;7.30;99.90;;;;;;5052339;28;20032;-70
2021/03/16 09:35:23;;;;;;;7.07;2.88;;;6.80;99.90;;;;;;5053885;28;20029;-71
2021/03/16 09:37:51;;;;;;;10.40;2.80;;;6.70;99.90;;;;;;5053889;28;20510;-70
2021/03/16 09:40:18;;;;;;;13.07;2.95;;;7.00;99.90;;;;;;5055501;28;20415;-70
2021/03/16 09:42:48;;;;;;;12.38;3.80;;;6.90;99.90;;;;;;5058625;28;20028;-71
2021/03/16 09:45:22;;;;;;;9.07;2.90;;;6.70;99.90;;;;;;5053753;28;20526;-71
2021/03/16 09:47:49;;;;;;;34.65;14.32;;;6.70;99.90;;;;;;5052585;28;20548;-71
2021/03/16 09:50:21;;;;;;;15.45;5.50;;;6.50;99.90;;;;;;5053340;28;20078;-70
2021/03/16 09:52:55;;;;;;;;;;;6.50;99.90;;;;;;5053429;28;20028;-70
2021/03/16 09:55:24;;;;;;;10.95;2.92;;;6.80;99.90;;;;;;5053308;28;19959;-70
2021/03/16 09:57:50;;;;;;;15.02;3.22;;;6.90;99.90;;;;;;5053054;28;20051;-70
2021/03/16 10:00:17;;;;;;;9.07;2.97;;;6.90;99.90;;;;;;5052652;28;20036;-70
2021/03/16 10:02:44;;;;;;;10.93;3.65;;;6.50;99.90;;;;;;5052645;28;20029;-69
2021/03/16 10:05:18;;;;;;;6.18;3.15;;;6.40;99.90;;;;;;5035911;28;20369;-72
2021/03/16 10:07:52;;;;;;;6.38;3.03;;;6.30;99.90;;;;;;5033200;28;20044;-69
2021/03/16 10:10:20;;;;;;;10.45;2.67;;;6.70;99.90;;;;;;5034014;28;20021;-70
2021/03/16 10:12:54;;;;;;;15.07;3.20;;;6.90;99.90;;;;;;5052675;28;20440;-70
2021/03/16 10:15:26;;;;;;;8.75;3.00;;;7.50;99.90;;;;;;5051683;28;20035;-72
2021/03/16 10:17:53;;;;;;;5.70;2.35;;;7.90;99.90;;;;;;5044021;28;20104;-70
2021/03/16 10:20:24;;;;;;;6.30;2.40;;;8.10;99.90;;;;;;5036504;28;20503;-71
2021/03/16 10:22:55;;;;;;;10.82;3.05;;;8.50;99.90;;;;;;5037590;28;20037;-70
2021/03/16 10:25:24;;;;;;;10.98;3.25;;;9.00;99.90;;;;;;5039356;28;20048;-69
2021/03/16 10:27:55;;;;;;;8.75;2.70;;;9.80;99.90;;;;;;5036499;28;20495;-69
2021/03/16 10:30:47;;;;;;;14.50;3.78;;;9.70;99.90;;;;;;5048401;28;20021;-70
2021/03/16 10:33:13;;;;;;;9.80;3.15;;;9.20;99.90;;;;;;5051641;28;20048;-69
2021/03/16 10:35:41;;;;;;;15.45;3.70;;;8.40;99.90;;;;;;5051488;28;20025;-69
2021/03/16 10:38:07;;;;;;;5.10;2.83;;;8.50;99.90;;;;;;5052752;28;20029;-70
2021/03/16 10:40:35;;;;;;;13.73;3.22;;;8.40;99.90;;;;;;5052405;28;20029;-69
2021/03/16 10:43:01;;;;;;;11.15;3.38;;;8.10;99.90;;;;;;5050679;28;20444;-69
2021/03/16 10:45:27;;;;;;;5.97;2.47;;;7.90;99.90;;;;;;5053944;28;20021;-70
2021/03/16 10:47:53;;;;;;;9.05;3.15;;;7.90;99.90;;;;;;5067666;28;20051;-67
2021/03/16 10:50:19;;;;;;;8.88;2.60;;;8.00;99.90;;;;;;5076191;28;20063;-68
2021/03/16 10:52:45;;;;;;;11.27;2.97;;;7.90;99.90;;;;;;5068893;28;20024;-70
2021/03/16 10:55:11;;;;;;;5.78;2.88;;;7.90;99.90;;;;;;5054684;28;20042;-69
2021/03/16 10:57:40;;;;;;;8.45;3.15;;;7.80;99.90;;;;;;5043335;28;20119;-71
2021/03/16 11:00:09;;;;;;;6.97;2.60;;;7.70;99.90;;;;;;5047734;28;20029;-71
2021/03/16 11:02:35;;;;;;;9.85;3.10;;;7.60;99.90;;;;;;5052003;28;20051;-71
2021/03/16 11:05:01;;;;;;;11.35;4.05;;;7.60;99.90;;;;;;5051658;28;20021;-67
2021/03/16 11:07:26;;;;;;;9.45;2.63;;;7.80;99.90;;;;;;5051226;28;20014;-69
2021/03/16 11:09:52;;;;;;;14.40;3.00;;;8.30;99.90;;;;;;5056495;28;20021;-69
2021/03/16 11:12:18;;;;;;;10.35;2.60;;;8.00;99.90;;;;;;5054915;28;20048;-68
2021/03/16 11:14:44;;;;;;;12.10;3.58;;;7.90;99.90;;;;;;5051674;28;20032;-68
2021/03/16 11:17:10;;;;;;;7.85;2.78;;;8.20;99.90;;;;;;5051757;28;20100;-68
2021/03/16 11:19:36;;;;;;;12.40;2.92;;;8.70;99.90;;;;;;5050953;28;20557;-70
2021/03/16 11:22:02;;;;;;;6.25;2.30;;;8.70;99.90;;;;;;5052165;28;20100;-68
2021/03/16 11:24:28;;;;;;;4.90;2.10;;;8.70;99.90;;;;;;5051244;28;20078;-70
2021/03/16 11:26:53;;;;;;;14.60;3.33;;;8.50;99.90;;;;;;5052007;28;20036;-69
2021/03/16 11:29:20;;;;;;;12.93;3.00;;;8.60;99.90;;;;;;5051724;28;20028;-71
2021/03/16 11:31:45;;;;;;;14.65;3.47;;;8.30;99.90;;;;;;5051083;28;20028;-69
2021/03/16 11:34:11;;;;;;;6.53;2.50;;;7.80;99.90;;;;;;5051986;28;20415;-70
2021/03/16 11:36:37;;;;;;;10.50;2.67;;;7.50;99.90;;;;;;5038714;28;20025;-70
2021/03/16 11:39:04;;;;;;;8.52;2.58;;;7.50;99.90;;;;;;5032075;28;20036;-69
2021/03/16 11:41:29;;;;;;;9.68;3.20;;;7.40;99.90;;;;;;5034625;28;20070;-70
2021/03/16 11:43:55;;;;;;;14.88;3.42;;;7.60;99.90;;;;;;5049980;28;20052;-71
2021/03/16 11:46:21;;;;;;;5.30;2.30;;;7.80;99.90;;;;;;5051951;28;20021;-70
2021/03/16 11:48:47;;;;;;;11.20;2.78;;;7.90;99.90;;;;;;5051464;28;20033;-70
2021/03/16 11:51:12;;;;;;;8.25;2.92;;;7.80;99.90;;;;;;5052103;28;20032;-70
2021/03/16 11:53:38;;;;;;;8.20;2.22;;;7.60;99.90;;;;;;5050453;28;20028;-70
2021/03/16 11:56:04;;;;;;;10.90;2.67;;;7.50;99.90;;;;;;5052854;28;20031;-71
2021/03/16 11:58:32;;;;;;;12.43;3.35;;;7.20;99.90;;;;;;5052911;28;20025;-70
2021/03/16 12:00:58;;;;;;;7.13;2.38;;;7.10;99.90;;;;;;5052915;28;20092;-71
2021/03/16 12:03:23;;;;;;;12.55;2.90;;;6.90;99.90;;;;;;5052667;28;20055;-69
2021/03/16 12:05:49;;;;;;;9.48;2.72;;;7.10;99.90;;;;;;5052179;28;20020;-69
2021/03/16 12:08:14;;;;;;;12.02;2.78;;;7.20;99.90;;;;;;5051794;28;20025;-70
2021/03/16 12:10:40;;;;;;;11.38;2.97;;;7.30;99.90;;;;;;5052674;28;20049;-71
2021/03/16 12:13:06;;;;;;;10.32;2.50;;;7.10;99.90;;;;;;5053614;28;20033;-70
2021/03/16 12:15:32;;;;;;;4.90;1.98;;;6.70;99.90;;;;;;5054140;28;20032;-71
2021/03/16 12:17:58;;;;;;;10.65;2.22;;;6.50;99.90;;;;;;5054372;28;20025;-70
2021/03/16 12:20:23;;;;;;;7.38;2.28;;;6.30;99.90;;;;;;5054968;28;20503;-70
2021/03/16 12:22:49;;;;;;;8.23;2.72;;;6.10;99.90;;;;;;5053026;28;20082;-70
2021/03/16 12:25:15;;;;;;;4.75;2.60;;;6.20;99.90;;;;;;5054957;28;20502;-71
2021/03/16 12:27:41;;;;;;;5.55;2.45;;;6.30;99.90;;;;;;5054606;28;20021;-70
2021/03/16 12:30:08;;;;;;;8.82;2.30;;;6.50;99.90;;;;;;5054603;28;20471;-70
2021/03/16 12:32:38;;;;;;;8.68;2.60;;;6.70;99.90;;;;;;5054923;28;20036;-70
2021/03/16 12:35:06;;;;;;;10.75;2.80;;;7.20;99.90;;;;;;5037412;28;20017;-70
2021/03/16 12:37:32;;;;;;;5.03;2.17;;;7.70;99.90;;;;;;5035039;28;20388;-70
2021/03/16 12:39:57;;;;;;;4.30;2.42;;;8.10;99.90;;;;;;5035757;28;20021;-70
2021/03/16 12:42:23;;;;;;;5.70;2.55;;;8.80;99.90;;;;;;5035457;28;20104;-70
2021/03/16 12:44:49;;;;;;;4.05;2.42;;;10.00;99.90;;;;;;5034245;28;20029;-69
2021/03/16 12:47:14;;;;;;;4.45;1.83;;;11.80;99.90;;;;;;5053552;28;20453;-70
2021/03/16 12:49:40;;;;;;;8.18;2.00;;;11.90;99.90;;;;;;5056286;28;20447;-70
2021/03/16 12:52:05;;;;;;;5.18;2.33;;;11.40;99.90;;;;;;5044758;28;20025;-69
2021/03/16 12:54:32;;;;;;;8.40;2.25;;;10.80;99.90;;;;;;5056739;28;20029;-68
2021/03/16 12:56:57;;;;;;;8.98;2.30;;;10.30;99.90;;;;;;5057839;28;20036;-69
2021/03/16 12:59:23;;;;;;;7.72;2.17;;;9.30;99.90;;;;;;5057709;28;20026;-69
2021/03/16 13:01:48;;;;;;;7.72;2.20;;;9.20;99.90;;;;;;5056999;28;20032;-70